Time;durP1;ratioP1;P1;durP2;ratioP2;P2;SDS_P1;SDS_P2;PMS_P1;PMS_P2;Temp;Humidity;BMP_temperature;BMP_pressure;BME280_temperature;BME280_humidity;BME280_pressure;Samples;Min_cycle;Max_cycle;Signal;HPM_P1;HPM_P2
2023/06/09 00:01:22;;;;;;;10.90;7.82;;;20.80;68.10;;;20.22;54.94;100401.25;4995369;28;20130;-77
2023/06/09 00:03:50;;;;;;;12.27;7.93;;;20.80;68.10;;;20.21;54.90;100407.78;4998215;28;20037;-78
2023/06/09 00:06:22;;;;;;;11.35;7.45;;;20.80;68.10;;;20.16;55.01;100415.91;5007047;28;20038;-77
2023/06/09 00:08:51;;;;;;;11.30;7.82;;;20.70;68.30;;;20.14;55.15;100406.44;4987767;28;20138;-77
2023/06/09 00:11:19;;;;;;;10.63;7.72;;;20.70;68.30;;;20.11;55.56;100405.09;4985290;28;20038;-77
2023/06/09 00:13:46;;;;;;;11.30;8.02;;;20.70;68.40;;;20.10;55.43;100411.59;5003301;28;20046;-77
2023/06/09 00:16:15;;;;;;;12.40;7.97;;;20.60;68.20;;;20.06;55.34;100408.63;5024247;28;20075;-77
2023/06/09 00:18:43;;;;;;;12.10;8.00;;;20.60;68.20;;;20.02;55.32;100401.34;5005773;28;20414;-77
2023/06/09 00:21:17;;;;;;;11.80;7.85;;;20.60;68.20;;;20.00;55.29;100408.91;5000880;28;20049;-77
2023/06/09 00:23:45;;;;;;;12.95;7.82;;;20.60;68.50;;;19.98;55.46;100413.81;4996081;28;20042;-77
2023/06/09 00:26:14;;;;;;;13.50;8.48;;;20.50;68.50;;;19.96;55.44;100403.25;5004630;28;20545;-77
2023/06/09 00:28:43;;;;;;;11.98;7.85;;;20.50;68.50;;;19.95;55.26;100396.19;5008720;28;20038;-77
2023/06/09 00:31:11;;;;;;;12.32;8.73;;;20.50;68.60;;;19.93;55.64;100397.56;5005314;28;20129;-77
2023/06/09 00:33:38;;;;;;;11.43;8.50;;;20.50;68.70;;;19.91;55.47;100397.03;5007991;28;20034;-77
2023/06/09 00:36:07;;;;;;;12.10;8.30;;;20.50;68.70;;;19.87;55.78;100391.38;5005531;28;20042;-77
2023/06/09 00:38:35;;;;;;;13.00;8.18;;;20.40;68.90;;;19.86;55.97;100394.31;4994036;28;20088;-77
2023/06/09 00:41:02;;;;;;;12.23;8.02;;;20.40;68.90;;;19.83;55.72;100398.41;5006020;28;20046;-77
2023/06/09 00:43:30;;;;;;;10.48;8.40;;;20.40;68.80;;;19.81;55.85;100395.16;4978136;28;20042;-77
2023/06/09 00:46:01;;;;;;;10.27;8.15;;;20.40;68.90;;;19.78;55.92;100396.53;4989772;28;20491;-77
2023/06/09 00:48:28;;;;;;;13.38;8.40;;;20.30;69.20;;;19.75;55.69;100390.84;4998691;28;20053;-77
2023/06/09 00:50:57;;;;;;;12.13;8.30;;;20.30;68.90;;;19.75;55.48;100402.47;4979634;28;20190;-78
2023/06/09 00:53:27;;;;;;;11.95;8.05;;;20.30;68.90;;;19.74;55.52;100395.44;5002005;28;20042;-77
2023/06/09 00:55:54;;;;;;;14.27;8.25;;;20.20;68.90;;;19.72;55.99;100397.63;5017359;28;20089;-77
2023/06/09 00:58:23;;;;;;;12.43;7.78;;;20.20;69.20;;;19.68;56.09;100399.25;4987733;28;20089;-77
2023/06/09 01:00:53;;;;;;;11.68;8.32;;;20.20;69.30;;;19.68;55.83;100401.16;4987279;28;20471;-77
2023/06/09 01:03:21;;;;;;;13.00;8.32;;;20.20;69.50;;;19.63;56.29;100398.47;4996228;28;20055;-77
2023/06/09 01:05:53;;;;;;;12.32;8.60;;;20.20;69.50;;;19.61;55.94;100390.59;5003826;28;20046;-78
2023/06/09 01:08:32;;;;;;;12.00;8.40;;;20.10;69.50;;;19.60;56.25;100393.56;5004620;28;20093;-78
2023/06/09 01:11:05;;;;;;;13.95;8.70;;;20.20;69.50;;;19.62;55.65;100396.81;4987723;28;20101;-77
2023/06/09 01:13:45;;;;;;;17.15;9.63;;;20.10;69.40;;;19.66;55.87;100403.31;5003521;28;20049;-77
2023/06/09 01:16:23;;;;;;;15.15;9.63;;;20.10;69.50;;;19.66;55.95;100397.88;4996859;28;20569;-77
2023/06/09 01:18:52;;;;;;;11.52;8.98;;;20.10;69.30;;;19.65;55.60;100397.09;5017979;28;20132;-77
2023/06/09 01:21:32;;;;;;;15.60;8.63;;;20.20;69.60;;;19.66;55.83;100404.09;4998989;28;20146;-77
2023/06/09 01:24:14;;;;;;;12.88;9.05;;;20.20;69.30;;;19.67;55.64;100405.75;4997691;28;20093;-78
2023/06/09 01:26:43;;;;;;;15.13;9.25;;;20.20;69.30;;;19.69;55.63;100403.56;5010309;28;20045;-77
2023/06/09 01:29:13;;;;;;;11.52;8.60;;;20.20;69.10;;;19.70;56.15;100397.06;5011338;28;20138;-77
2023/06/09 01:31:41;;;;;;;11.98;8.90;;;20.20;69.10;;;19.71;56.08;100401.38;4995697;23;21416;-77
2023/06/09 01:34:09;;;;;;;12.95;9.00;;;20.20;69.40;;;19.71;55.76;100406.00;4974617;28;20043;-77
2023/06/09 01:36:36;;;;;;;16.38;9.48;;;20.20;69.10;;;19.71;55.64;100392.47;4973695;28;20039;-77
2023/06/09 01:39:04;;;;;;;17.75;9.23;;;20.20;69.30;;;19.71;55.96;100397.88;4955529;28;20072;-78
2023/06/09 01:41:31;;;;;;;14.75;9.38;;;20.20;69.60;;;19.69;56.10;100400.06;4967612;28;20542;-78
2023/06/09 01:44:00;;;;;;;11.95;9.70;;;20.20;69.50;;;19.66;56.07;100395.19;4968876;28;20495;-78
2023/06/09 01:46:28;;;;;;;11.85;8.57;;;20.20;69.70;;;19.62;56.00;100388.69;4950751;28;20044;-78
2023/06/09 01:49:06;;;;;;;14.05;9.38;;;20.20;69.50;;;19.60;56.27;100388.97;4968710;28;20539;-78
2023/06/09 01:51:43;;;;;;;11.05;8.40;;;20.10;69.90;;;19.58;56.44;100393.03;4949936;28;20043;-78
2023/06/09 01:54:15;;;;;;;12.80;9.00;;;20.10;69.90;;;19.54;56.48;100390.84;4944977;28;20102;-78
2023/06/09 01:56:47;;;;;;;15.15;9.18;;;20.10;70.20;;;19.51;56.70;100391.38;4964544;28;20135;-78
2023/06/09 01:59:21;;;;;;;12.32;9.13;;;20.10;70.10;;;19.49;56.46;100398.97;4936109;29;20062;-77
2023/06/09 02:01:53;;;;;;;12.75;9.65;;;20.00;70.10;;;19.48;56.33;100391.94;4952153;28;20039;-77
2023/06/09 02:04:24;;;;;;;13.13;9.25;;;20.00;70.10;;;19.47;56.51;100398.44;4970213;28;20494;-78
2023/06/09 02:06:53;;;;;;;14.55;9.38;;;20.00;70.20;;;19.42;56.58;100387.63;4953917;28;20195;-77
2023/06/09 02:09:21;;;;;;;15.10;9.82;;;20.00;70.20;;;19.42;56.82;100390.34;4966531;28;20043;-77
2023/06/09 02:11:52;;;;;;;13.00;9.70;;;20.00;70.40;;;19.40;57.11;100400.59;4929046;29;20110;-78
2023/06/09 02:14:21;;;;;;;13.68;9.80;;;20.00;70.50;;;19.39;56.98;100409.00;4977006;28;20496;-78
2023/06/09 02:16:53;;;;;;;14.88;10.23;;;19.90;70.70;;;19.37;56.90;100395.72;4963988;28;20043;-77
2023/06/09 02:19:20;;;;;;;13.30;8.85;;;19.90;70.70;;;19.34;57.11;100385.47;4953046;29;20053;-77
2023/06/09 02:21:47;;;;;;;15.40;9.63;;;19.90;70.80;;;19.30;57.16;100393.31;4958294;28;20121;-77
2023/06/09 02:24:16;;;;;;;13.40;9.38;;;19.80;70.90;;;19.28;57.36;100386.56;4956047;28;20051;-77
2023/06/09 02:26:43;;;;;;;14.15;9.38;;;19.80;70.80;;;19.26;57.42;100396.81;4952806;29;20683;-77
2023/06/09 02:29:11;;;;;;;13.82;8.98;;;19.80;71.10;;;19.23;57.41;100391.97;4952517;29;20054;-77
2023/06/09 02:31:41;;;;;;;14.23;9.32;;;19.80;71.10;;;19.20;57.55;100390.59;4970792;28;20515;-77
2023/06/09 02:34:08;;;;;;;15.63;9.88;;;19.70;71.10;;;19.17;57.52;100388.41;4946320;28;20105;-77
2023/06/09 02:36:37;;;;;;;15.05;10.27;;;19.70;71.30;;;19.16;57.38;100388.69;4949318;29;20086;-77
2023/06/09 02:39:06;;;;;;;14.68;9.88;;;19.70;71.30;;;19.13;57.46;100394.63;4940138;28;20149;-77
2023/06/09 02:41:33;;;;;;;14.20;9.43;;;19.60;71.30;;;19.09;57.79;100399.78;4938171;28;20042;-77
2023/06/09 02:44:02;;;;;;;13.80;9.68;;;19.60;71.40;;;19.07;57.78;100395.72;4951456;28;20078;-77
2023/06/09 02:46:30;;;;;;;12.98;9.52;;;19.60;71.50;;;19.03;57.60;100400.84;4935239;29;20767;-77
2023/06/09 02:48:58;;;;;;;13.40;9.68;;;19.60;71.60;;;18.99;58.03;100388.97;4953281;29;20043;-77
2023/06/09 02:51:25;;;;;;;13.80;9.80;;;19.50;71.70;;;18.95;58.10;100391.41;4954398;28;20606;-76
2023/06/09 02:53:53;;;;;;;17.15;10.05;;;19.50;71.90;;;18.91;58.13;100401.13;4964218;28;20115;-77
2023/06/09 02:56:20;;;;;;;13.20;9.20;;;19.50;72.00;;;18.88;58.24;100400.84;4950619;29;20051;-77
2023/06/09 02:58:53;;;;;;;14.95;9.88;;;19.40;71.90;;;18.85;58.31;100398.69;4935742;29;20146;-77
2023/06/09 03:01:21;;;;;;;13.30;9.65;;;19.40;72.00;;;18.82;58.35;100400.03;4933869;28;20583;-77
2023/06/09 03:03:50;;;;;;;14.95;10.02;;;19.40;72.20;;;18.78;58.40;100398.94;4938111;29;20138;-77
2023/06/09 03:06:19;;;;;;;12.25;9.35;;;19.30;72.30;;;18.76;58.22;100401.91;4963457;28;20054;-77
2023/06/09 03:08:47;;;;;;;15.25;10.68;;;19.30;72.30;;;18.74;58.25;100392.44;4935052;29;20456;-77
2023/06/09 03:11:15;;;;;;;13.05;10.18;;;19.30;72.50;;;18.71;58.25;100392.97;4958811;28;20507;-78
2023/06/09 03:13:42;;;;;;;15.48;9.93;;;19.30;72.50;;;18.68;58.56;100393.47;4968200;28;20047;-77
2023/06/09 03:16:09;;;;;;;13.43;9.55;;;19.30;72.50;;;18.65;58.45;100394.03;4965545;28;20043;-78
2023/06/09 03:18:37;;;;;;;15.18;10.32;;;19.20;72.60;;;18.62;58.82;100400.75;4951261;29;20045;-78
2023/06/09 03:21:04;;;;;;;20.25;9.93;;;19.20;72.70;;;18.60;58.52;100400.22;4936777;28;20046;-78
2023/06/09 03:23:36;;;;;;;13.38;9.85;;;19.20;72.70;;;18.59;58.56;100403.16;4959149;28;20061;-77
2023/06/09 03:26:05;;;;;;;13.52;10.32;;;19.10;72.90;;;18.56;58.64;100403.72;4966425;28;20134;-77
2023/06/09 03:28:32;;;;;;;13.93;10.27;;;19.10;72.90;;;18.53;59.05;100400.44;4934133;29;20412;-77
2023/06/09 03:31:00;;;;;;;13.43;9.68;;;19.10;73.20;;;18.50;58.86;100409.09;4967777;28;20046;-77
2023/06/09 03:33:29;;;;;;;14.45;10.30;;;19.00;73.10;;;18.49;58.94;100404.75;4949088;28;20114;-77
2023/06/09 03:35:57;;;;;;;13.73;9.57;;;19.00;73.10;;;18.46;59.25;100402.59;4934402;29;20058;-77
2023/06/09 03:38:28;;;;;;;14.07;10.25;;;19.00;73.30;;;18.45;59.18;100405.59;4933483;29;20051;-77
2023/06/09 03:40:56;;;;;;;14.27;10.57;;;19.00;73.30;;;18.43;59.26;100411.22;4969296;28;20101;-77
2023/06/09 03:43:25;;;;;;;15.90;10.45;;;19.00;73.40;;;18.42;59.16;100412.31;4969845;28;20058;-77
2023/06/09 03:45:52;;;;;;;16.55;10.48;;;19.00;73.50;;;18.41;59.22;100407.19;4955015;28;20059;-77
2023/06/09 03:48:19;;;;;;;15.02;9.50;;;19.00;73.60;;;18.39;59.41;100406.63;4965776;28;20043;-77
2023/06/09 03:50:47;;;;;;;15.73;11.13;;;18.90;73.80;;;18.38;59.42;100405.81;4930371;28;20527;-78
2023/06/09 03:53:16;;;;;;;13.02;10.57;;;18.90;73.80;;;18.38;59.61;100405.81;4933955;29;20058;-77
2023/06/09 03:55:44;;;;;;;14.27;10.00;;;18.90;73.90;;;18.35;59.60;100400.94;4965559;28;20102;-77
2023/06/09 03:58:13;;;;;;;17.98;10.50;;;18.90;74.00;;;18.36;59.84;100407.16;4966624;28;20579;-77
2023/06/09 04:00:43;;;;;;;14.85;10.05;;;18.90;74.30;;;18.31;59.79;100399.84;4966355;28;20042;-77
2023/06/09 04:03:11;;;;;;;11.68;9.77;;;18.90;74.20;;;18.32;59.89;100400.66;4949326;28;20625;-78
2023/06/09 04:05:38;;;;;;;14.63;10.48;;;18.90;74.50;;;18.32;60.02;100406.88;4959814;28;20044;-77
2023/06/09 04:08:06;;;;;;;15.93;11.45;;;18.90;74.50;;;18.32;60.21;100406.06;4929769;29;20047;-77
2023/06/09 04:10:33;;;;;;;14.70;10.55;;;18.90;74.80;;;18.32;60.30;100412.28;4942155;28;20057;-77
2023/06/09 04:13:00;;;;;;;14.90;11.23;;;18.90;74.80;;;18.33;60.30;100403.09;4963601;28;20635;-77
2023/06/09 04:15:29;;;;;;;15.27;11.30;;;18.90;75.00;;;18.35;60.34;100406.34;4949457;29;20070;-77
2023/06/09 04:17:58;;;;;;;15.15;10.90;;;18.90;74.80;;;18.35;60.56;100406.34;4966528;28;20086;-77
2023/06/09 04:20:30;;;;;;;17.60;12.10;;;18.90;75.00;;;18.38;60.39;100410.41;4960694;28;20423;-78
2023/06/09 04:22:58;;;;;;;17.83;12.82;;;18.90;75.10;;;18.41;60.66;100415.28;4968438;28;20094;-77
2023/06/09 04:25:29;;;;;;;17.40;12.68;;;18.90;75.20;;;18.45;60.72;100402.88;4948065;28;20460;-77
2023/06/09 04:28:08;;;;;;;20.02;13.45;;;19.00;75.10;;;18.51;60.27;100412.63;4930427;29;20134;-77
2023/06/09 04:30:40;;;;;;;16.45;12.40;;;19.00;75.20;;;18.55;60.66;100411.00;4928507;28;20047;-78
2023/06/09 04:33:12;;;;;;;19.75;12.50;;;19.10;75.20;;;18.62;60.51;100411.56;4953219;28;20069;-79
2023/06/09 04:35:40;;;;;;;20.77;12.77;;;19.10;75.20;;;18.71;60.47;100409.19;4947694;29;20051;-77
2023/06/09 04:38:08;;;;;;;20.13;13.02;;;19.20;75.00;;;18.82;60.72;100400.03;4940038;29;20044;-77
2023/06/09 04:40:39;;;;;;;16.70;11.75;;;19.30;75.80;;;18.93;61.26;100401.66;4971662;28;20054;-76
2023/06/09 04:43:09;;;;;;;18.42;13.25;;;19.40;75.90;;;19.08;61.32;100408.16;4946709;28;20059;-76
2023/06/09 04:45:38;;;;;;;18.55;12.93;;;19.60;76.20;;;19.21;61.01;100413.84;4932126;29;20051;-76
2023/06/09 04:48:14;;;;;;;18.60;12.13;;;19.70;76.00;;;19.31;60.07;100407.63;4946706;29;20187;-77
2023/06/09 04:50:44;;;;;;;14.52;12.23;;;19.80;75.40;;;19.44;60.75;100412.50;4933612;28;20051;-77
2023/06/09 04:53:12;;;;;;;19.05;13.25;;;20.00;75.40;;;19.56;60.31;100404.91;4930101;29;20047;-77
2023/06/09 04:55:45;;;;;;;18.48;12.93;;;20.10;75.20;;;19.71;59.94;100414.94;4936269;28;20099;-77
2023/06/09 04:58:15;;;;;;;16.33;12.48;;;20.20;74.80;;;19.81;59.14;100414.09;4926262;29;20051;-77
2023/06/09 05:00:44;;;;;;;16.40;12.00;;;20.30;73.90;;;19.94;59.09;100410.81;4955404;28;20050;-76
2023/06/09 05:03:17;;;;;;;18.10;12.52;;;20.50;74.10;;;20.09;58.65;100414.56;4941250;29;20625;-78
2023/06/09 05:05:46;;;;;;;19.05;12.75;;;20.60;73.30;;;20.20;58.66;100418.88;4929406;29;20051;-76
2023/06/09 05:08:15;;;;;;;26.83;14.18;;;20.70;73.10;;;20.31;58.02;100415.84;4931668;29;20043;-78
2023/06/09 05:10:43;;;;;;;18.25;13.45;;;20.80;72.30;;;20.41;57.94;100417.72;4952516;28;20162;-76
2023/06/09 05:13:11;;;;;;;17.77;13.18;;;20.90;72.10;;;20.52;57.65;100422.03;4968053;28;20047;-77
2023/06/09 05:15:39;;;;;;;24.02;14.30;;;21.00;71.90;;;20.61;56.34;100419.53;4945112;28;20202;-78
2023/06/09 05:18:10;;;;;;;18.98;13.32;;;21.10;70.80;;;20.69;56.40;100421.69;4961890;28;20404;-78
2023/06/09 05:20:37;;;;;;;20.63;14.77;;;21.20;70.40;;;20.77;56.38;100420.25;4950515;28;20043;-76
2023/06/09 05:23:05;;;;;;;23.20;15.27;;;21.30;70.50;;;20.87;56.19;100411.25;4954485;28;20051;-77
2023/06/09 05:25:32;;;;;;;26.52;15.75;;;21.40;69.90;;;20.93;55.22;100420.97;4940720;29;20059;-78
2023/06/09 05:28:00;;;;;;;19.95;15.18;;;21.50;69.30;;;21.01;55.62;100420.38;4946402;29;20035;-78
2023/06/09 05:30:28;;;;;;;22.92;14.82;;;21.50;69.20;;;21.09;56.13;100417.09;4950193;28;20057;-76
2023/06/09 05:32:55;;;;;;;20.65;13.88;;;21.70;69.90;;;21.17;55.57;100419.16;4948788;28;20043;-77
2023/06/09 05:35:25;;;;;;;21.98;13.82;;;21.70;69.30;;;21.24;55.13;100421.59;4964264;28;20098;-77
2023/06/09 05:37:53;;;;;;;18.75;13.50;;;21.80;68.90;;;21.33;55.43;100425.34;4961306;28;20916;-78
2023/06/09 05:40:24;;;;;;;25.52;13.82;;;21.90;68.90;;;21.42;54.61;100425.50;4953383;28;20496;-77
2023/06/09 05:42:51;;;;;;;23.73;13.20;;;22.00;68.40;;;21.49;55.01;100423.31;4960363;28;20475;-77
2023/06/09 05:45:19;;;;;;;17.13;13.18;;;22.10;68.90;;;21.56;54.37;100423.75;4948019;28;20043;-77
2023/06/09 05:47:46;;;;;;;16.77;13.25;;;22.10;67.50;;;21.64;53.94;100428.59;4947222;29;20074;-77
2023/06/09 05:50:13;;;;;;;14.30;12.75;;;22.20;67.10;;;21.71;53.67;100433.66;4953524;28;20137;-77
2023/06/09 05:52:42;;;;;;;19.77;13.30;;;22.30;67.50;;;21.78;53.34;100432.25;4953042;28;20081;-77
2023/06/09 05:55:10;;;;;;;17.52;13.07;;;22.30;66.70;;;21.82;53.17;100435.22;4947687;29;20069;-77
2023/06/09 05:57:39;;;;;;;17.75;13.73;;;22.40;66.40;;;21.89;53.42;100432.94;4952269;28;20835;-77
2023/06/09 06:00:09;;;;;;;19.08;13.10;;;22.40;66.40;;;21.97;53.62;100436.97;4951819;28;20463;-77
2023/06/09 06:02:39;;;;;;;18.83;12.95;;;22.50;67.00;;;22.04;53.39;100438.22;4958948;28;20051;-77
2023/06/09 06:05:07;;;;;;;19.65;13.70;;;22.60;66.30;;;22.09;53.42;100431.91;4951029;29;20217;-77
2023/06/09 06:07:37;;;;;;;18.45;12.63;;;22.60;66.40;;;22.16;53.52;100432.44;4949698;28;20584;-77
2023/06/09 06:10:07;;;;;;;18.33;13.15;;;22.80;66.40;;;22.25;52.81;100433.41;4950642;28;20039;-77
2023/06/09 06:12:34;;;;;;;18.27;12.93;;;22.80;66.00;;;22.32;53.22;100430.34;4953351;28;20122;-77
2023/06/09 06:15:01;;;;;;;17.17;13.32;;;22.90;66.40;;;22.38;52.49;100428.38;4950096;29;20089;-77
2023/06/09 06:17:28;;;;;;;18.02;12.05;;;23.00;65.10;;;22.47;52.78;100426.63;4952255;29;20126;-77
2023/06/09 06:19:56;;;;;;;16.48;13.05;;;23.00;65.70;;;22.53;51.62;100425.44;4959542;28;20117;-77
2023/06/09 06:22:23;;;;;;;18.05;12.70;;;23.10;64.30;;;22.58;52.73;100428.09;4960033;28;20051;-77
2023/06/09 06:24:51;;;;;;;17.40;12.57;;;23.20;65.50;;;22.64;52.53;100435.06;4949842;28;20126;-77
2023/06/09 06:27:19;;;;;;;17.00;11.88;;;23.20;65.40;;;22.75;52.19;100436.56;4952304;29;20874;-77
2023/06/09 06:29:46;;;;;;;18.70;13.20;;;23.30;65.00;;;22.83;53.03;100435.09;4947499;28;20074;-77
2023/06/09 06:32:14;;;;;;;17.45;13.02;;;23.40;65.70;;;22.88;51.65;100426.84;4950937;28;20135;-77
2023/06/09 06:34:41;;;;;;;16.30;11.50;;;23.40;64.00;;;22.94;51.69;100424.94;4951052;28;20051;-77
2023/06/09 06:37:08;;;;;;;18.48;11.63;;;23.50;64.30;;;23.01;51.17;100426.16;4951525;28;20572;-78
2023/06/09 06:39:35;;;;;;;21.83;11.90;;;23.60;63.40;;;23.08;50.99;100421.16;4952514;28;20597;-77
2023/06/09 06:42:03;;;;;;;18.77;10.85;;;23.70;63.20;;;23.16;51.47;100427.84;4956749;28;20096;-77
2023/06/09 06:44:38;;;;;;;13.07;9.77;;;23.70;63.80;;;23.23;50.99;100422.84;4948268;28;20047;-77
2023/06/09 06:47:06;;;;;;;13.45;9.65;;;23.80;63.10;;;23.32;51.84;100428.38;4950117;28;20035;-77
2023/06/09 06:49:33;;;;;;;15.43;9.77;;;23.90;64.20;;;23.40;51.25;100425.00;4954445;28;20051;-77
2023/06/09 06:52:00;;;;;;;16.27;9.70;;;24.00;63.30;;;23.47;51.40;100419.97;4967174;28;20477;-77
2023/06/09 06:54:27;;;;;;;15.32;9.63;;;24.10;63.60;;;23.52;50.76;100419.91;4951134;28;20947;-77
2023/06/09 06:56:55;;;;;;;16.13;10.02;;;24.10;63.00;;;23.58;50.60;100429.59;4950184;28;20090;-77
2023/06/09 06:59:22;;;;;;;14.07;9.57;;;24.20;62.40;;;23.69;52.25;100426.72;4952680;28;20047;-77
2023/06/09 07:01:51;;;;;;;13.07;9.98;;;24.30;64.60;;;23.76;49.99;100425.19;4955064;28;20051;-77
2023/06/09 07:04:18;;;;;;;17.40;9.52;;;24.40;61.60;;;23.83;50.52;100430.28;4944981;28;20050;-77
2023/06/09 07:06:45;;;;;;;13.85;9.20;;;24.40;62.10;;;23.93;50.30;100423.81;4950414;29;20098;-77
2023/06/09 07:09:13;;;;;;;13.98;9.05;;;24.50;61.70;;;23.99;49.98;100420.69;4958073;28;20039;-77
2023/06/09 07:11:43;;;;;;;13.40;8.60;;;24.60;61.80;;;24.05;50.32;100427.66;4959925;28;20058;-77
2023/06/09 07:14:11;;;;;;;12.65;8.82;;;24.70;62.00;;;24.13;49.41;100426.97;4951124;28;20106;-77
2023/06/09 07:16:38;;;;;;;11.52;8.88;;;24.80;60.90;;;24.21;50.26;100427.38;4950768;28;20058;-77
2023/06/09 07:19:08;;;;;;;14.88;8.27;;;24.80;61.80;;;24.27;50.68;100426.97;4962245;28;20555;-77
2023/06/09 07:21:36;;;;;;;12.20;8.05;;;24.90;62.20;;;24.34;50.35;100426.53;4955468;28;20047;-77
2023/06/09 07:24:05;;;;;;;11.52;8.52;;;25.00;61.80;;;24.37;49.14;100425.97;4949927;28;20065;-77
2023/06/09 07:26:33;;;;;;;14.95;8.45;;;25.10;60.30;;;24.42;48.91;100417.69;4951186;28;20130;-78
2023/06/09 07:29:00;;;;;;;16.90;8.70;;;25.10;60.00;;;24.46;49.85;100429.59;4937665;28;20053;-78
2023/06/09 07:31:27;;;;;;;9.77;7.82;;;25.10;61.20;;;24.48;47.30;100413.72;4950619;28;20804;-78
2023/06/09 07:33:54;;;;;;;13.65;8.15;;;25.20;57.80;;;24.53;47.32;100419.06;4964782;28;20047;-77
2023/06/09 07:36:24;;;;;;;10.30;8.30;;;25.20;57.90;;;24.58;47.12;100427.16;4954260;28;20043;-77
2023/06/09 07:38:51;;;;;;;12.07;8.27;;;25.20;57.80;;;24.61;47.22;100425.75;4950278;29;20047;-77
2023/06/09 07:41:18;;;;;;;11.40;7.88;;;25.30;58.00;;;24.64;48.02;100414.19;4949713;28;20435;-77
2023/06/09 07:43:46;;;;;;;11.70;8.02;;;25.30;58.60;;;24.69;47.28;100421.47;4950546;28;20535;-78
2023/06/09 07:46:14;;;;;;;10.32;7.80;;;25.40;58.20;;;24.76;48.46;100414.50;4955298;28;20509;-77
2023/06/09 07:48:42;;;;;;;11.50;7.68;;;25.50;59.10;;;24.80;46.31;100414.69;4953068;28;20046;-77
2023/06/09 07:51:10;;;;;;;9.18;7.68;;;25.50;56.60;;;24.80;45.68;100411.97;4952971;28;20102;-77
2023/06/09 07:53:38;;;;;;;11.27;7.25;;;25.50;55.70;;;24.84;46.29;100413.75;4951106;28;20046;-77
2023/06/09 07:56:05;;;;;;;11.88;7.30;;;25.50;56.40;;;24.91;45.07;100416.06;4955220;28;20660;-78
2023/06/09 07:58:33;;;;;;;10.88;7.18;;;25.60;55.30;;;24.95;46.30;100416.25;4939823;28;20480;-78
2023/06/09 08:01:00;;;;;;;10.50;7.43;;;25.70;56.40;;;25.00;45.74;100416.13;4949382;28;20076;-78
2023/06/09 08:03:29;;;;;;;9.75;7.10;;;25.70;55.70;;;25.01;45.12;100415.81;4951677;28;20120;-77
2023/06/09 08:05:56;;;;;;;14.73;7.45;;;25.70;54.80;;;25.02;44.47;100409.22;4952943;28;20035;-78
2023/06/09 08:08:25;;;;;;;9.82;6.78;;;25.70;54.40;;;25.06;43.99;100414.88;4978953;23;20388;-85
2023/06/09 08:10:54;;;;;;;8.75;6.65;;;25.80;53.60;;;25.06;43.48;100414.88;4990320;28;20046;-84
2023/06/09 08:13:23;;;;;;;11.10;6.75;;;25.80;53.00;;;25.06;42.83;100415.69;4988307;28;20058;-86
2023/06/09 08:15:52;;;;;;;9.80;5.95;;;25.80;52.20;;;25.11;44.56;100415.59;4990571;28;20034;-87
2023/06/09 08:18:27;;;;;;;9.35;6.22;;;25.80;54.10;;;25.15;43.95;100413.06;4990594;28;20507;-87
2023/06/09 08:20:57;;;;;;;10.65;6.10;;;25.90;53.20;;;25.21;43.66;100421.94;4999413;28;20046;-84
2023/06/09 08:23:25;;;;;;;13.07;6.68;;;25.90;52.90;;;25.27;42.50;100421.50;4995616;28;20042;-86
2023/06/09 08:25:58;;;;;;;8.40;6.10;;;26.00;52.30;;;25.30;42.19;100418.16;4991030;28;20058;-85
2023/06/09 08:28:34;;;;;;;8.82;6.45;;;26.00;51.80;;;25.34;41.81;100415.59;4966099;28;20051;-86
2023/06/09 08:31:04;;;;;;;9.15;6.38;;;26.00;51.30;;;25.36;42.32;100392.31;4986699;28;20102;-84
2023/06/09 08:33:42;;;;;;;8.98;6.25;;;26.00;51.80;;;25.38;42.50;100408.41;4992148;28;20077;-85
2023/06/09 08:36:09;;;;;;;8.70;6.28;;;26.10;51.90;;;25.39;41.15;100397.16;4988631;28;20149;-85
2023/06/09 08:38:38;;;;;;;7.55;5.72;;;26.10;50.90;;;25.44;42.20;100390.78;4997936;28;20034;-86
2023/06/09 08:41:10;;;;;;;9.35;6.05;;;26.10;51.50;;;25.48;41.85;100391.75;4989652;28;20046;-84
2023/06/09 08:43:38;;;;;;;8.38;5.90;;;26.10;51.10;;;25.53;40.76;100394.38;4985385;28;20058;-87
2023/06/09 08:46:12;;;;;;;9.20;6.30;;;26.20;49.90;;;25.50;40.48;100389.50;4998502;28;20049;-86
2023/06/09 08:49:01;;;;;;;10.98;6.38;;;26.20;49.40;;;25.51;39.97;100399.31;4988362;28;20086;-86
2023/06/09 08:51:29;;;;;;;14.20;5.85;;;26.20;48.90;;;25.49;40.34;100401.56;4999199;28;20071;-86
2023/06/09 08:53:58;;;;;;;11.65;6.15;;;26.20;49.10;;;25.51;40.11;100399.31;4978031;28;20054;-86
2023/06/09 08:56:32;;;;;;;8.65;5.57;;;26.20;49.20;;;25.48;40.35;100399.16;4991974;28;20050;-86
2023/06/09 08:59:03;;;;;;;10.88;6.07;;;26.20;49.20;;;25.46;40.44;100391.25;4981790;28;20039;-86
2023/06/09 09:01:31;;;;;;;9.57;5.85;;;26.10;49.20;;;25.52;40.03;100392.72;4992173;28;20069;-78
2023/06/09 09:03:59;;;;;;;9.55;5.38;;;26.20;49.10;;;25.55;39.96;100392.09;4984385;28;20053;-84
2023/06/09 09:06:29;;;;;;;9.95;5.50;;;26.20;48.80;;;25.55;39.81;100391.31;4979610;28;20042;-86
2023/06/09 09:08:56;;;;;;;9.23;5.18;;;26.20;48.70;;;25.59;40.38;100386.84;4965916;28;20120;-86
2023/06/09 09:11:34;;;;;;;6.72;5.00;;;26.30;49.10;;;25.64;39.56;100394.91;4980819;28;20047;-85
2023/06/09 09:14:10;;;;;;;11.95;5.43;;;26.30;48.30;;;25.67;38.83;100391.53;4985348;28;20050;-84
2023/06/09 09:16:38;;;;;;;7.18;5.30;;;26.40;46.90;;;25.67;38.92;100384.16;4981683;28;20043;-87
2023/06/09 09:19:31;;;;;;;8.48;4.78;;;26.40;47.10;;;25.73;39.60;100384.00;4986191;28;20042;-85
2023/06/09 09:22:07;;;;;;;9.18;5.18;;;26.40;47.70;;;25.74;39.12;100391.06;4985450;28;20146;-84
2023/06/09 09:24:40;;;;;;;10.20;5.25;;;26.40;47.30;;;25.75;39.25;100388.06;4976118;28;20141;-84
2023/06/09 09:27:16;;;;;;;8.73;5.10;;;26.50;47.60;;;25.81;38.23;100388.72;4994673;28;20116;-87
2023/06/09 09:29:44;;;;;;;9.27;4.68;;;26.50;46.40;;;25.81;38.07;100389.53;4993456;28;20051;-84
2023/06/09 09:32:12;;;;;;;12.38;4.72;;;26.50;45.70;;;25.79;38.30;100385.50;4985792;28;20093;-86
2023/06/09 09:34:42;;;;;;;7.22;4.80;;;26.50;46.00;;;25.81;37.41;100381.31;4991982;28;20038;-85
2023/06/09 09:37:12;;;;;;;13.20;5.05;;;26.50;45.00;;;25.82;37.59;100380.22;4978916;28;20062;-87
2023/06/09 09:39:50;;;;;;;7.45;5.07;;;26.50;44.90;;;25.92;38.31;100379.13;4970648;28;20046;-85
2023/06/09 09:42:20;;;;;;;5.82;4.35;;;26.60;46.00;;;26.00;38.78;100383.81;4997852;28;20040;-86
2023/06/09 09:44:51;;;;;;;6.22;4.40;;;26.70;46.40;;;26.02;36.34;100373.38;4978829;28;20109;-87
2023/06/09 09:47:27;;;;;;;6.30;4.07;;;26.70;43.80;;;25.94;35.20;100379.63;4998413;28;20164;-87
2023/06/09 09:49:58;;;;;;;6.38;4.10;;;26.60;42.30;;;25.90;35.10;100375.91;4991465;28;20066;-84
2023/06/09 09:52:26;;;;;;;;;;;26.60;42.20;;;25.93;36.10;100364.34;4991387;28;20750;-85
2023/06/09 09:54:55;;;;;;;5.75;4.30;;;26.70;43.00;;;25.99;37.33;100370.47;4991986;28;20301;-85
2023/06/09 09:57:25;;;;;;;8.43;4.32;;;26.70;44.60;;;26.08;35.90;100365.84;4993202;28;20569;-84
2023/06/09 09:59:53;;;;;;;5.50;4.00;;;26.80;42.60;;;26.08;35.57;100365.84;4991733;28;20070;-84
2023/06/09 10:02:25;;;;;;;6.47;4.18;;;26.80;42.00;;;26.05;33.93;100370.00;4991777;28;20113;-84
2023/06/09 10:04:56;;;;;;;8.18;4.13;;;26.80;40.50;;;26.04;34.15;100362.13;4986880;28;20574;-85
2023/06/09 10:07:27;;;;;;;7.00;3.80;;;26.80;40.30;;;26.06;33.89;100371.63;4990415;28;20051;-89
2023/06/09 10:09:55;;;;;;;7.68;3.90;;;26.80;40.10;;;26.06;34.21;100368.06;4996610;28;20042;-84
2023/06/09 10:12:26;;;;;;;7.70;3.95;;;26.80;40.30;;;26.07;34.79;100359.56;4990847;28;20513;-84
2023/06/09 10:14:54;;;;;;;8.00;4.68;;;26.80;41.50;;;26.13;35.37;100363.75;4978727;28;20042;-86